Palos Hills, Illinois
Current Conditions -  °F | °C
As of 7:53 PM on Saturday 20 Dec 2014 (Local Time) from KMDW Reporting Station
Overcast Overcast  
Wind Chill: 27°   Ceiling: 4800
Heat Index: 34°   Visibility: 10mi
Dew Point: 26°   Wind: 8mph
Humidity: 73%   Direction: 180°S
Pressure: 30.27"   Gusts: NA
Location:  41.7°N, 87.83°W
Report Text: KMDW 210153Z 18007KT 10SM OVC048 01/M03 A3027 RMK AO2 SLP261 T00111033
Loading
Personal Weather Stations






























Interactive Weather Map New forecast layout! Learn more

10-Day Weather Forecast

Advertisements
Track Severe Weather on mobile